createdAt,value
2023-05-17T00:01:57.568Z,4.82
2023-05-17T00:06:59.613Z,4.69
2023-05-17T00:12:01.578Z,4.52
2023-05-17T00:17:03.507Z,4.41
2023-05-17T00:22:05.410Z,4.45
2023-05-17T00:27:07.373Z,4.37
2023-05-17T00:32:09.257Z,4.36
2023-05-17T00:37:11.125Z,4.44
2023-05-17T00:42:14.675Z,4.45
2023-05-17T00:47:16.752Z,4.39
2023-05-17T00:52:18.681Z,4.41
2023-05-17T00:57:21.020Z,4.34
2023-05-17T01:02:22.859Z,4.33
2023-05-17T01:07:24.781Z,4.26
2023-05-17T01:12:52.029Z,4.15
2023-05-17T01:17:59.907Z,3.95
2023-05-17T01:23:24.310Z,3.85
2023-05-17T01:28:27.301Z,3.81
2023-05-17T01:33:30.553Z,3.71
2023-05-17T01:38:32.450Z,3.60
2023-05-17T01:44:02.781Z,3.76
2023-05-17T01:49:17.104Z,3.74
2023-05-17T01:54:23.398Z,3.82
2023-05-17T01:59:27.745Z,3.73
2023-05-17T02:04:31.086Z,3.69
2023-05-17T02:09:35.798Z,3.84
2023-05-17T02:14:37.650Z,3.80
2023-05-17T02:19:39.523Z,3.88
2023-05-17T02:24:42.214Z,3.77
2023-05-17T02:29:44.073Z,3.50
2023-05-17T02:34:45.921Z,3.40
2023-05-17T02:39:47.776Z,3.23
2023-05-17T02:44:53.052Z,3.10
2023-05-17T02:49:55.001Z,3.03
2023-05-17T02:54:57.068Z,2.97
2023-05-17T02:59:58.950Z,3.00
2023-05-17T03:05:02.041Z,3.24
2023-05-17T03:10:04.337Z,3.34
2023-05-17T03:15:13.056Z,3.34
2023-05-17T03:20:15.106Z,3.51
2023-05-17T03:25:18.044Z,3.61
2023-05-17T03:30:20.168Z,3.38
2023-05-17T03:35:24.907Z,3.22
2023-05-17T03:40:30.263Z,3.13
2023-05-17T03:45:33.696Z,3.09
2023-05-17T03:50:35.742Z,3.06
2023-05-17T03:55:37.943Z,3.39
2023-05-17T04:00:40.127Z,3.67
2023-05-17T04:05:48.172Z,3.53
2023-05-17T04:10:50.205Z,3.32
2023-05-17T04:15:52.062Z,3.22
2023-05-17T04:20:55.715Z,3.40
2023-05-17T04:25:58.622Z,3.68
2023-05-17T04:31:01.466Z,3.98
2023-05-17T04:36:04.069Z,4.17
2023-05-17T04:41:09.625Z,4.44
2023-05-17T04:46:13.404Z,4.78
2023-05-17T04:51:15.484Z,5.06
2023-05-17T04:56:18.196Z,5.35
2023-05-17T05:01:20.474Z,5.60
2023-05-17T05:06:22.627Z,5.80
2023-05-17T05:11:24.732Z,5.97
2023-05-17T05:16:26.747Z,6.13
2023-05-17T05:21:28.734Z,6.21
2023-05-17T05:26:32.076Z,6.27
2023-05-17T05:31:36.439Z,6.10
2023-05-17T05:36:39.529Z,6.11
2023-05-17T05:41:41.463Z,6.28
2023-05-17T05:46:43.396Z,6.56
2023-05-17T05:51:45.273Z,6.56
2023-05-17T05:56:47.123Z,6.66
2023-05-17T06:01:50.820Z,6.85
2023-05-17T06:06:53.981Z,7.13
2023-05-17T06:11:55.707Z,7.56
2023-05-17T06:16:57.350Z,8.02
2023-05-17T06:21:59.013Z,8.24
2023-05-17T06:27:00.658Z,8.55
2023-05-17T06:32:02.325Z,8.73
2023-05-17T06:37:04.210Z,8.78
2023-05-17T06:42:05.975Z,8.93
2023-05-17T06:47:11.105Z,9.37
2023-05-17T06:52:12.769Z,9.65
2023-05-17T06:57:14.432Z,10.18
2023-05-17T07:02:16.081Z,10.53
2023-05-17T07:07:17.929Z,10.14
2023-05-17T07:12:19.599Z,10.31
2023-05-17T07:17:21.321Z,10.31
2023-05-17T07:22:32.672Z,11.56
2023-05-17T07:27:52.235Z,11.83
2023-05-17T07:32:59.479Z,10.01
2023-05-17T07:38:01.568Z,10.65
2023-05-17T07:43:03.209Z,9.62
2023-05-17T07:48:05.199Z,9.41
2023-05-17T07:53:07.207Z,10.42
2023-05-17T07:58:11.931Z,10.61
2023-05-17T08:03:15.661Z,10.70
2023-05-17T08:08:18.860Z,11.42
2023-05-17T08:13:20.649Z,12.68
2023-05-17T08:18:22.394Z,13.47
2023-05-17T08:23:24.279Z,12.72
2023-05-17T08:28:25.950Z,11.98
2023-05-17T08:33:28.536Z,10.76
2023-05-17T08:38:30.452Z,10.80
2023-05-17T08:43:32.253Z,10.29
2023-05-17T08:48:36.851Z,10.51
2023-05-17T08:53:38.815Z,11.56
2023-05-17T08:58:55.376Z,12.22
2023-05-17T09:04:00.183Z,11.52
2023-05-17T09:09:02.055Z,10.10
2023-05-17T09:14:06.312Z,10.01
2023-05-17T09:19:09.151Z,10.25
2023-05-17T09:24:11.082Z,11.11
2023-05-17T09:29:15.128Z,12.51
2023-05-17T09:34:19.614Z,12.84
2023-05-17T09:39:21.536Z,11.68
2023-05-17T09:44:25.452Z,11.65
2023-05-17T09:49:28.876Z,11.80
2023-05-17T09:54:32.877Z,13.13
2023-05-17T09:59:35.273Z,11.39
2023-05-17T10:04:38.002Z,10.47
2023-05-17T10:09:40.334Z,11.01
2023-05-17T10:14:44.066Z,12.32
2023-05-17T10:19:47.078Z,13.71
2023-05-17T10:24:51.298Z,14.27
2023-05-17T10:29:54.660Z,13.98
2023-05-17T10:35:09.499Z,15.42
2023-05-17T10:40:17.571Z,15.35
2023-05-17T10:45:25.589Z,14.18
2023-05-17T10:50:27.584Z,13.47
2023-05-17T10:55:41.506Z,14.34
2023-05-17T11:00:55.147Z,14.39
2023-05-17T11:06:24.975Z,13.35
2023-05-17T11:11:27.900Z,15.26
2023-05-17T11:16:36.643Z,17.15
2023-05-17T11:21:51.531Z,21.68
2023-05-17T11:26:55.854Z,17.43
2023-05-17T11:32:02.314Z,15.83
2023-05-17T11:37:06.225Z,14.37
2023-05-17T11:42:25.020Z,17.49
2023-05-17T11:47:27.768Z,18.93
2023-05-17T11:52:30.220Z,17.48
2023-05-17T11:57:32.644Z,17.00
2023-05-17T12:02:34.485Z,14.13
2023-05-17T12:07:37.456Z,17.54
2023-05-17T12:12:41.418Z,15.96
2023-05-17T12:17:45.484Z,16.65
2023-05-17T12:22:57.177Z,15.28
2023-05-17T12:28:22.796Z,16.66
2023-05-17T12:33:26.231Z,17.13
2023-05-17T12:38:32.009Z,17.93
2023-05-17T12:43:34.870Z,16.93
2023-05-17T12:48:38.093Z,14.01
2023-05-17T12:53:41.146Z,13.49
2023-05-17T12:58:42.930Z,14.05
2023-05-17T13:03:51.489Z,17.71
2023-05-17T13:09:00.701Z,20.88
2023-05-17T13:14:02.434Z,18.35
2023-05-17T13:19:12.393Z,17.75
2023-05-17T13:24:14.146Z,17.00
2023-05-17T13:29:17.406Z,20.66
2023-05-17T13:34:21.140Z,22.16
2023-05-17T13:39:23.449Z,20.18
2023-05-17T13:44:25.505Z,21.10
2023-05-17T13:49:28.453Z,19.10
2023-05-17T13:54:30.152Z,15.21
2023-05-17T13:59:32.136Z,16.72
2023-05-17T14:04:34.376Z,18.95
2023-05-17T14:09:36.870Z,16.50
2023-05-17T14:14:38.572Z,19.64
2023-05-17T14:19:40.550Z,24.75
2023-05-17T14:24:42.346Z,19.16
2023-05-17T14:29:43.999Z,19.27
2023-05-17T14:34:45.728Z,21.63
2023-05-17T14:51:17.080Z,21.42
2023-05-17T15:01:45.557Z,29.29
2023-05-17T15:06:47.699Z,30.82
2023-05-17T15:11:50.689Z,29.19
2023-05-17T15:16:52.861Z,32.46
2023-05-17T15:21:54.638Z,34.97
2023-05-17T15:26:56.547Z,32.17
2023-05-17T15:32:01.640Z,31.38
2023-05-17T15:37:03.527Z,30.91
2023-05-17T15:42:05.839Z,28.41
2023-05-17T15:47:07.577Z,29.59
2023-05-17T15:52:09.331Z,21.76
2023-05-17T15:57:11.129Z,19.77
2023-05-17T16:02:12.968Z,16.66
2023-05-17T16:07:14.613Z,16.57
2023-05-17T16:12:16.262Z,16.27
2023-05-17T16:17:18.268Z,15.37
2023-05-17T16:22:20.531Z,14.99
2023-05-17T16:27:22.315Z,14.77
2023-05-17T16:32:24.097Z,14.34
2023-05-17T16:37:25.790Z,14.29
2023-05-17T16:42:27.512Z,14.01
2023-05-17T16:47:29.274Z,13.54
2023-05-17T16:52:31.180Z,13.08
2023-05-17T16:57:32.934Z,12.59
2023-05-17T17:02:34.670Z,12.91
2023-05-17T17:07:36.338Z,12.79
2023-05-17T17:12:37.971Z,12.35
2023-05-17T17:17:39.716Z,12.47
2023-05-17T17:22:41.509Z,12.55
2023-05-17T17:27:43.158Z,12.42
2023-05-17T17:32:45.053Z,12.49
2023-05-17T17:37:46.877Z,12.49
2023-05-17T17:42:48.571Z,12.16
2023-05-17T17:47:50.282Z,11.49
2023-05-17T17:52:51.975Z,11.25
2023-05-17T17:57:53.609Z,11.04
2023-05-17T18:02:55.455Z,10.71
2023-05-17T18:07:57.281Z,10.49
2023-05-17T18:12:59.242Z,10.28
2023-05-17T18:18:00.911Z,10.09
2023-05-17T18:23:02.698Z,10.04
2023-05-17T18:28:05.132Z,10.05
2023-05-17T18:33:08.147Z,10.10
2023-05-17T18:38:10.617Z,9.95
2023-05-17T18:43:12.942Z,9.63
2023-05-17T18:48:14.672Z,9.30
2023-05-17T18:53:16.439Z,8.97
2023-05-17T18:58:18.135Z,8.66
2023-05-17T19:03:20.112Z,8.52
2023-05-17T19:08:21.829Z,8.12
2023-05-17T19:13:23.516Z,7.90
2023-05-17T19:18:25.261Z,7.79
2023-05-17T19:23:28.141Z,7.55
2023-05-17T19:28:31.497Z,7.52
2023-05-17T19:33:34.087Z,7.42
2023-05-17T19:38:35.870Z,7.40
2023-05-17T19:43:38.122Z,7.32
2023-05-17T19:48:39.994Z,7.20
2023-05-17T19:53:52.471Z,7.20
2023-05-17T19:58:54.881Z,7.24
2023-05-17T20:03:56.751Z,7.26
2023-05-17T20:08:58.605Z,7.34
2023-05-17T20:14:00.407Z,7.17
2023-05-17T20:19:02.113Z,7.33
2023-05-17T20:24:06.679Z,7.40
2023-05-17T20:29:08.380Z,7.31
2023-05-17T20:34:10.920Z,7.22
2023-05-17T20:39:15.129Z,7.19
2023-05-17T20:44:18.786Z,7.18
2023-05-17T20:49:21.121Z,6.93
2023-05-17T20:54:25.406Z,6.54
2023-05-17T20:59:27.164Z,6.33
2023-05-17T21:04:28.812Z,6.22
2023-05-17T21:09:30.497Z,6.11
2023-05-17T21:14:32.135Z,5.97
2023-05-17T21:19:36.380Z,5.85
2023-05-17T21:24:38.178Z,5.77
2023-05-17T21:29:39.859Z,5.69
2023-05-17T21:34:43.346Z,5.57
2023-05-17T21:39:45.019Z,5.47
2023-05-17T21:44:46.724Z,5.34
2023-05-17T21:49:48.369Z,5.23
2023-05-17T21:54:50.040Z,5.18
2023-05-17T21:59:51.974Z,5.05
2023-05-17T22:04:53.860Z,5.04
2023-05-17T22:09:55.771Z,5.01
2023-05-17T22:14:57.817Z,5.06
2023-05-17T22:20:03.116Z,5.01
2023-05-17T22:25:05.547Z,5.00
2023-05-17T22:30:07.812Z,5.01
2023-05-17T22:35:09.536Z,5.00
2023-05-17T22:40:11.384Z,4.95
2023-05-17T22:45:14.320Z,4.89
2023-05-17T22:50:18.514Z,4.83
2023-05-17T22:55:20.361Z,4.84
2023-05-17T23:00:22.062Z,4.77
2023-05-17T23:05:23.706Z,4.79
2023-05-17T23:10:25.459Z,4.82
2023-05-17T23:15:28.414Z,4.83
2023-05-17T23:20:31.183Z,4.77
2023-05-17T23:25:32.834Z,4.77
2023-05-17T23:30:38.375Z,4.78
2023-05-17T23:35:40.079Z,4.77
2023-05-17T23:40:41.936Z,4.77
2023-05-17T23:45:43.873Z,4.74
2023-05-17T23:50:46.012Z,4.76
2023-05-17T23:55:47.887Z,4.71
